Main page
METAR-TAF:

METAR-TAF

Airports :

RAF Odiham

Odiham, England

latitude: 51-14N, longitude: 000-57W, elevation: 123 m

Current weather observation

The report was made 58 minutes ago, at 06:50 UTC
Wind 9 kt from the Southwest
Temperature 15°C
Humidity 82%
Pressure 1003 hPa
Visibility 10 km or more
Few clouds at a height of 1200 ft
Scattered clouds at a height of 6000 ft

METAR: EGVO 180650Z 22009KT 9999 FEW012 SCT060 15/12 Q1003 RMK BLU

Time: 08:48 (07:48 UTC)


TAF: missing

Weather observations and forecasts of more than 4000 airports (METAR and TAF reports).

The available stations are represented by yellow and red dots on the map.

Hover mouse over dot to see the name of the station.

Then click to see weather observations and forecasts.

To change the map : click on the green buttons with a black cross to zoom in, on the green button with a dash to zoom out, or on the green arrows for adjacent maps.


METAR-TAF: